createdAt,value
2018-10-07T00:00:45.527Z,59.09
2018-10-07T00:03:14.502Z,59.55
2018-10-07T00:05:43.531Z,59.96
2018-10-07T00:08:12.492Z,59.59
2018-10-07T00:10:41.581Z,60.19
2018-10-07T00:13:10.551Z,60.47
2018-10-07T00:15:39.626Z,60.10
2018-10-07T00:18:08.568Z,59.84
2018-10-07T00:20:37.539Z,60.11
2018-10-07T00:23:06.626Z,59.86
2018-10-07T00:25:35.551Z,60.69
2018-10-07T00:28:04.622Z,60.49
2018-10-07T00:30:33.554Z,60.33
2018-10-07T00:33:02.553Z,60.36
2018-10-07T00:35:31.502Z,60.22
2018-10-07T00:38:00.451Z,60.19
2018-10-07T00:40:29.395Z,60.97
2018-10-07T00:42:58.346Z,60.71
2018-10-07T00:45:27.834Z,61.01
2018-10-07T00:47:56.818Z,60.37
2018-10-07T00:50:25.766Z,61.34
2018-10-07T00:52:54.704Z,60.50
2018-10-07T00:55:23.639Z,61.14
2018-10-07T00:57:52.665Z,60.96
2018-10-07T01:00:21.894Z,61.16
2018-10-07T01:02:50.841Z,61.20
2018-10-07T01:05:19.817Z,61.16
2018-10-07T01:07:48.786Z,62.07
2018-10-07T01:10:17.823Z,61.53
2018-10-07T01:12:46.786Z,61.88
2018-10-07T01:15:15.761Z,62.43
2018-10-07T01:17:44.755Z,62.51
2018-10-07T01:20:13.750Z,62.83
2018-10-07T01:22:42.864Z,64.11
2018-10-07T01:25:11.847Z,64.32
2018-10-07T01:27:40.935Z,64.54
2018-10-07T01:30:09.998Z,65.79
2018-10-07T01:32:38.983Z,66.06
2018-10-07T01:35:08.027Z,66.87
2018-10-07T01:37:37.079Z,67.14
2018-10-07T01:40:06.115Z,67.78
2018-10-07T01:42:35.096Z,68.18
2018-10-07T01:45:04.074Z,69.03
2018-10-07T01:47:33.175Z,68.34
2018-10-07T01:50:02.143Z,68.96
2018-10-07T01:52:31.168Z,70.02
2018-10-07T01:55:00.150Z,70.34
2018-10-07T01:57:29.245Z,70.20
2018-10-07T01:59:58.281Z,70.75
2018-10-07T02:02:27.260Z,70.20
2018-10-07T02:04:56.239Z,70.28
2018-10-07T02:07:25.331Z,69.97
2018-10-07T02:09:54.315Z,69.47
2018-10-07T02:12:23.323Z,69.56
2018-10-07T02:14:52.278Z,69.27
2018-10-07T02:17:21.348Z,69.91
2018-10-07T02:19:50.340Z,69.66
2018-10-07T02:22:19.283Z,70.25
2018-10-07T02:24:48.268Z,71.64
2018-10-07T02:27:17.198Z,71.46
2018-10-07T02:29:46.219Z,71.63
2018-10-07T02:32:15.139Z,71.78
2018-10-07T02:34:44.127Z,71.52
2018-10-07T02:37:13.073Z,71.38
2018-10-07T02:39:42.031Z,70.82
2018-10-07T02:42:11.003Z,70.47
2018-10-07T02:44:39.973Z,70.97
2018-10-07T02:47:08.995Z,71.08
2018-10-07T02:49:38.003Z,69.81
2018-10-07T02:52:07.799Z,69.35
2018-10-07T02:54:36.759Z,68.86
2018-10-07T02:57:05.711Z,69.18
2018-10-07T02:59:34.671Z,68.52
2018-10-07T03:02:03.614Z,69.38
2018-10-07T03:04:32.580Z,69.46
2018-10-07T03:07:01.587Z,68.96
2018-10-07T03:09:30.554Z,68.70
2018-10-07T03:11:59.552Z,69.17
2018-10-07T03:14:28.554Z,69.95
2018-10-07T03:16:57.479Z,69.52
2018-10-07T03:19:26.562Z,68.60
2018-10-07T03:21:55.520Z,70.01
2018-10-07T03:24:24.543Z,70.09
2018-10-07T03:26:53.534Z,70.78
2018-10-07T03:29:22.524Z,70.54
2018-10-07T03:31:51.514Z,71.67
2018-10-07T03:34:20.501Z,72.99
2018-10-07T03:36:49.459Z,73.33
2018-10-07T03:39:18.433Z,72.60
2018-10-07T03:41:47.380Z,72.35
2018-10-07T03:44:16.355Z,73.88
2018-10-07T03:46:45.306Z,73.48
2018-10-07T03:49:14.270Z,74.80
2018-10-07T03:51:43.214Z,74.48
2018-10-07T03:54:12.193Z,74.18
2018-10-07T03:56:41.126Z,73.25
2018-10-07T03:59:10.091Z,72.21
2018-10-07T04:01:39.055Z,70.84
2018-10-07T04:04:08.018Z,70.33
2018-10-07T04:06:36.978Z,69.82
2018-10-07T04:09:08.306Z,69.17
2018-10-07T04:11:37.282Z,68.25
2018-10-07T04:14:06.351Z,69.06
2018-10-07T04:16:35.321Z,68.00
2018-10-07T04:19:04.326Z,67.99
2018-10-07T04:21:33.302Z,69.05
2018-10-07T04:24:02.670Z,68.14
2018-10-07T04:26:31.774Z,67.28
2018-10-07T04:29:01.060Z,67.62
2018-10-07T04:31:30.015Z,67.96
2018-10-07T04:33:58.968Z,67.75
2018-10-07T04:36:27.931Z,66.45
2018-10-07T04:38:56.878Z,66.32
2018-10-07T04:41:25.863Z,66.45
2018-10-07T04:43:54.827Z,66.14
2018-10-07T04:46:23.838Z,65.20
2018-10-07T04:48:52.750Z,65.04
2018-10-07T04:51:21.726Z,64.33
2018-10-07T04:53:50.670Z,63.77
2018-10-07T04:56:19.623Z,63.28
2018-10-07T04:58:48.581Z,64.09
2018-10-07T05:01:17.546Z,64.93
2018-10-07T05:03:46.564Z,64.22
2018-10-07T05:06:15.803Z,64.27
2018-10-07T05:08:44.819Z,63.97
2018-10-07T05:11:13.803Z,63.89
2018-10-07T05:13:50.787Z,63.79
2018-10-07T05:16:25.063Z,64.71
2018-10-07T05:18:54.011Z,64.69
2018-10-07T05:21:22.983Z,64.93
2018-10-07T05:23:51.926Z,65.29
2018-10-07T05:26:20.891Z,65.24
2018-10-07T05:28:49.825Z,65.12
2018-10-07T05:31:18.787Z,64.69
2018-10-07T05:33:47.778Z,64.56
2018-10-07T05:36:16.764Z,65.00
2018-10-07T05:38:45.729Z,65.04
2018-10-07T05:41:14.707Z,65.50
2018-10-07T05:43:43.651Z,64.74
2018-10-07T05:46:12.916Z,65.17
2018-10-07T05:48:41.935Z,65.35
2018-10-07T05:51:10.915Z,65.38
2018-10-07T05:53:39.879Z,65.12
2018-10-07T05:56:08.858Z,64.93
2018-10-07T05:58:38.547Z,64.07
2018-10-07T06:01:11.028Z,64.11
2018-10-07T06:04:23.956Z,63.82
2018-10-07T06:06:54.351Z,64.03
2018-10-07T06:09:26.259Z,63.85
2018-10-07T06:11:55.890Z,63.90
2018-10-07T06:14:36.204Z,64.49
2018-10-07T06:17:05.427Z,64.79
2018-10-07T06:19:34.390Z,65.98
2018-10-07T06:22:04.635Z,65.40
2018-10-07T06:24:34.325Z,65.01
2018-10-07T06:27:03.542Z,66.10
2018-10-07T06:29:32.507Z,65.41
2018-10-07T06:32:01.501Z,67.74
2018-10-07T06:34:30.459Z,66.50
2018-10-07T06:36:59.456Z,67.15
2018-10-07T06:39:28.407Z,66.52
2018-10-07T06:41:57.370Z,65.82
2018-10-07T06:44:26.328Z,65.90
2018-10-07T06:46:55.303Z,65.41
2018-10-07T06:49:24.263Z,65.09
2018-10-07T06:51:53.226Z,64.62
2018-10-07T06:54:22.183Z,64.54
2018-10-07T06:56:51.349Z,64.29
2018-10-07T06:59:20.310Z,64.05
2018-10-07T07:01:49.288Z,63.00
2018-10-07T07:04:18.402Z,63.07
2018-10-07T07:06:47.373Z,63.67
2018-10-07T07:09:16.330Z,63.51
2018-10-07T07:11:46.240Z,63.78
2018-10-07T07:14:15.194Z,63.68
2018-10-07T07:16:44.182Z,63.71
2018-10-07T07:19:13.143Z,63.73
2018-10-07T07:21:42.114Z,63.55
2018-10-07T07:24:11.074Z,65.54
2018-10-07T07:26:40.053Z,66.63
2018-10-07T07:29:08.993Z,65.52
2018-10-07T07:31:37.970Z,63.55
2018-10-07T07:34:07.791Z,63.81
2018-10-07T07:36:37.039Z,63.89
2018-10-07T07:39:06.799Z,64.05
2018-10-07T07:41:35.787Z,64.62
2018-10-07T07:44:04.743Z,65.06
2018-10-07T07:46:33.787Z,64.06
2018-10-07T07:49:02.791Z,63.63
2018-10-07T07:51:31.754Z,63.10
2018-10-07T07:54:00.762Z,63.63
2018-10-07T07:56:29.718Z,62.27
2018-10-07T07:58:59.498Z,61.78
2018-10-07T08:01:28.491Z,61.63
2018-10-07T08:03:57.454Z,62.75
2018-10-07T08:06:26.418Z,61.11
2018-10-07T08:08:55.516Z,60.93
2018-10-07T08:11:24.618Z,59.70
2018-10-07T08:13:53.587Z,60.15
2018-10-07T08:16:22.542Z,60.31
2018-10-07T08:18:51.507Z,59.19
2018-10-07T08:21:20.522Z,60.89
2018-10-07T08:23:49.509Z,60.52
2018-10-07T08:26:18.454Z,60.00
2018-10-07T08:28:47.406Z,61.27
2018-10-07T08:31:16.373Z,59.82
2018-10-07T08:33:45.335Z,60.24
2018-10-07T08:36:14.383Z,59.76
2018-10-07T08:38:43.319Z,60.00
2018-10-07T08:41:12.351Z,60.71
2018-10-07T08:43:41.322Z,59.38
2018-10-07T08:46:10.810Z,59.18
2018-10-07T08:48:39.762Z,58.71
2018-10-07T08:51:08.698Z,58.82
2018-10-07T08:53:37.760Z,58.39
2018-10-07T08:56:06.744Z,57.25
2018-10-07T08:58:35.703Z,56.03
2018-10-07T09:01:04.733Z,56.15
2018-10-07T09:03:33.675Z,55.50
2018-10-07T09:06:02.675Z,57.03
2018-10-07T09:08:31.626Z,55.67
2018-10-07T09:11:00.706Z,56.20
2018-10-07T09:13:29.662Z,55.79
2018-10-07T09:16:00.081Z,55.18
2018-10-07T09:18:30.138Z,54.53
2018-10-07T09:21:00.139Z,54.69
2018-10-07T09:23:29.161Z,54.67
2018-10-07T09:25:58.102Z,54.69
2018-10-07T09:28:27.163Z,55.47
2018-10-07T09:30:56.171Z,54.99
2018-10-07T09:33:25.160Z,53.65
2018-10-07T09:35:58.438Z,54.01
2018-10-07T09:38:27.638Z,54.01
2018-10-07T09:40:56.662Z,54.06
2018-10-07T09:43:25.887Z,53.14
2018-10-07T09:45:55.368Z,52.58
2018-10-07T09:48:24.444Z,52.13
2018-10-07T09:50:53.733Z,52.13
2018-10-07T09:53:22.839Z,51.87
2018-10-07T09:55:52.236Z,51.81
2018-10-07T09:58:21.295Z,52.09
2018-10-07T10:00:50.434Z,52.13
2018-10-07T10:03:19.689Z,51.01
2018-10-07T10:05:48.894Z,50.63
2018-10-07T10:08:18.018Z,51.47
2018-10-07T10:10:47.235Z,52.24
2018-10-07T10:13:16.214Z,52.89
2018-10-07T10:15:45.202Z,53.05
2018-10-07T10:18:24.670Z,51.77
2018-10-07T10:20:57.438Z,51.99
2018-10-07T10:23:35.595Z,51.17
2018-10-07T10:26:11.247Z,50.96
2018-10-07T10:29:17.894Z,51.44
2018-10-07T10:31:59.222Z,50.17
2018-10-07T10:34:54.256Z,49.11
2018-10-07T10:37:29.670Z,49.73
2018-10-07T10:40:01.264Z,49.25
2018-10-07T10:43:37.572Z,48.79
2018-10-07T10:46:13.574Z,48.59
2018-10-07T10:50:55.462Z,48.35
2018-10-07T10:53:36.052Z,49.52
2018-10-07T10:56:13.482Z,48.34
2018-10-07T10:59:51.658Z,47.94
2018-10-07T11:02:30.787Z,47.99
2018-10-07T11:06:15.586Z,49.11
2018-10-07T11:08:49.446Z,48.82
2018-10-07T11:11:27.550Z,49.14
2018-10-07T11:14:02.966Z,48.83
2018-10-07T11:16:46.749Z,47.51
2018-10-07T11:19:22.642Z,47.37
2018-10-07T11:22:00.102Z,48.10
2018-10-07T11:25:38.797Z,47.58
2018-10-07T11:28:19.825Z,47.58
2018-10-07T11:31:02.363Z,46.72
2018-10-07T11:34:11.010Z,46.46
2018-10-07T11:36:46.018Z,46.26
2018-10-07T11:39:36.942Z,46.59
2018-10-07T11:42:10.340Z,45.86
2018-10-07T11:44:54.657Z,45.09
2018-10-07T11:47:29.567Z,44.37
2018-10-07T11:50:06.963Z,44.33
2018-10-07T11:52:42.138Z,44.86
2018-10-07T11:55:10.150Z,45.72
2018-10-07T11:57:39.326Z,45.67
2018-10-07T12:00:08.455Z,44.68
2018-10-07T12:02:38.595Z,44.38
2018-10-07T12:05:07.654Z,43.76
2018-10-07T12:07:36.934Z,43.82
2018-10-07T12:10:05.935Z,44.09
2018-10-07T12:12:35.143Z,44.20
2018-10-07T12:15:04.415Z,45.56
2018-10-07T12:17:33.692Z,45.39
2018-10-07T12:20:02.933Z,44.55
2018-10-07T12:22:32.159Z,44.34
2018-10-07T12:25:01.328Z,43.75
2018-10-07T12:27:30.823Z,44.08
2018-10-07T12:29:59.854Z,44.86
2018-10-07T12:32:29.485Z,44.25
2018-10-07T12:34:58.433Z,44.73
2018-10-07T12:37:27.666Z,43.21
2018-10-07T12:39:56.788Z,43.94
2018-10-07T12:42:25.830Z,42.50
2018-10-07T12:44:54.926Z,43.26
2018-10-07T12:47:23.958Z,42.72
2018-10-07T12:49:53.340Z,42.89
2018-10-07T12:52:22.742Z,44.85
2018-10-07T12:54:51.731Z,44.67
2018-10-07T12:57:20.690Z,43.38
2018-10-07T12:59:52.967Z,45.42
2018-10-07T13:02:22.006Z,44.58
2018-10-07T13:04:50.938Z,43.97
2018-10-07T13:07:19.880Z,43.40
2018-10-07T13:09:48.848Z,42.77
2018-10-07T13:12:17.830Z,43.75
2018-10-07T13:14:46.790Z,42.21
2018-10-07T13:17:15.754Z,42.18
2018-10-07T13:19:44.682Z,42.83
2018-10-07T13:22:13.638Z,42.94
2018-10-07T13:24:42.581Z,42.14
2018-10-07T13:27:11.580Z,43.85
2018-10-07T13:29:40.531Z,43.63
2018-10-07T13:32:09.551Z,43.16
2018-10-07T13:34:38.524Z,42.62
2018-10-07T13:37:07.458Z,42.36
2018-10-07T13:39:38.244Z,41.68
2018-10-07T13:42:07.383Z,41.43
2018-10-07T13:44:36.392Z,41.48
2018-10-07T13:47:06.370Z,41.71
2018-10-07T13:49:35.357Z,42.23
2018-10-07T13:52:05.924Z,42.19
2018-10-07T13:54:35.034Z,42.32
2018-10-07T13:57:03.986Z,42.92
2018-10-07T13:59:32.934Z,42.42
2018-10-07T14:02:01.974Z,41.53
2018-10-07T14:04:30.913Z,41.57
2018-10-07T14:07:00.031Z,41.29
2018-10-07T14:09:29.026Z,41.37
2018-10-07T14:11:58.016Z,42.59
2018-10-07T14:14:26.981Z,43.33
2018-10-07T14:16:55.972Z,42.67
2018-10-07T14:19:24.958Z,42.76
2018-10-07T14:21:53.919Z,42.92
2018-10-07T14:24:22.950Z,44.49
2018-10-07T14:26:51.895Z,43.16
2018-10-07T14:29:20.871Z,42.85
2018-10-07T14:31:49.843Z,43.03
2018-10-07T14:34:18.804Z,43.28
2018-10-07T14:36:47.746Z,42.87
2018-10-07T14:39:16.809Z,43.86
2018-10-07T14:41:45.711Z,42.68
2018-10-07T14:44:14.691Z,43.54
2018-10-07T14:46:43.702Z,44.25
2018-10-07T14:49:12.707Z,44.40
2018-10-07T14:51:41.654Z,43.76
2018-10-07T14:54:10.641Z,43.32
2018-10-07T14:56:39.610Z,43.79
2018-10-07T14:59:08.590Z,42.92
2018-10-07T15:01:37.561Z,43.57
2018-10-07T15:04:06.895Z,43.24
2018-10-07T15:06:35.859Z,43.72
2018-10-07T15:09:06.830Z,44.08
2018-10-07T15:11:35.786Z,43.44
2018-10-07T15:14:04.779Z,43.70
2018-10-07T15:16:33.751Z,44.73
2018-10-07T15:19:02.782Z,45.64
2018-10-07T15:21:31.725Z,45.42
2018-10-07T15:24:00.689Z,45.94
2018-10-07T15:26:29.696Z,44.97
2018-10-07T15:28:58.771Z,44.80
2018-10-07T15:31:27.821Z,45.12
2018-10-07T15:33:56.748Z,44.95
2018-10-07T15:36:25.880Z,44.45
2018-10-07T15:38:54.810Z,44.88
2018-10-07T15:41:23.830Z,45.32
2018-10-07T15:43:52.842Z,44.62
2018-10-07T15:46:21.809Z,45.14
2018-10-07T15:48:50.770Z,44.84
2018-10-07T15:51:19.743Z,44.21
2018-10-07T15:53:48.756Z,45.13
2018-10-07T15:56:17.722Z,44.82
2018-10-07T15:58:46.692Z,46.36
2018-10-07T16:01:15.688Z,45.85
2018-10-07T16:03:44.743Z,47.45
2018-10-07T16:06:13.751Z,47.37
2018-10-07T16:08:42.807Z,47.14
2018-10-07T16:11:11.872Z,46.86
2018-10-07T16:13:40.916Z,46.82
2018-10-07T16:16:10.159Z,46.57
2018-10-07T16:18:39.318Z,46.90
2018-10-07T16:21:08.326Z,46.71
2018-10-07T16:23:37.304Z,46.81
2018-10-07T16:26:06.340Z,46.68
2018-10-07T16:28:35.302Z,46.17
2018-10-07T16:31:04.320Z,46.92
2018-10-07T16:33:33.341Z,46.94
2018-10-07T16:36:02.279Z,47.45
2018-10-07T16:38:31.659Z,47.61
2018-10-07T16:41:00.675Z,47.72
2018-10-07T16:43:29.627Z,47.50
2018-10-07T16:45:58.751Z,47.62
2018-10-07T16:48:28.048Z,47.92
2018-10-07T16:50:57.021Z,48.00
2018-10-07T16:53:25.992Z,48.20
2018-10-07T16:55:54.991Z,47.43
2018-10-07T16:58:24.098Z,47.42
2018-10-07T17:00:53.129Z,48.50
2018-10-07T17:03:22.144Z,48.70
2018-10-07T17:05:51.144Z,48.93
2018-10-07T17:08:20.166Z,48.45
2018-10-07T17:10:49.164Z,47.88
2018-10-07T17:13:18.168Z,48.17
2018-10-07T17:15:47.277Z,48.53
2018-10-07T17:18:16.243Z,48.47
2018-10-07T17:20:45.242Z,48.66
2018-10-07T17:23:14.238Z,48.58
2018-10-07T17:25:43.318Z,50.18
2018-10-07T17:28:12.351Z,49.11
2018-10-07T17:30:41.295Z,49.35
2018-10-07T17:33:11.301Z,49.32
2018-10-07T17:35:40.384Z,49.58
2018-10-07T17:38:09.376Z,49.43
2018-10-07T17:40:38.370Z,49.58
2018-10-07T17:43:07.384Z,49.80
2018-10-07T17:45:36.354Z,50.04
2018-10-07T17:48:05.341Z,49.27
2018-10-07T17:50:34.304Z,49.41
2018-10-07T17:53:03.591Z,49.57
2018-10-07T17:55:32.615Z,50.00
2018-10-07T17:58:01.608Z,49.96
2018-10-07T18:00:30.592Z,50.49
2018-10-07T18:02:59.738Z,50.07
2018-10-07T18:05:28.694Z,50.73
2018-10-07T18:07:57.678Z,50.50
2018-10-07T18:10:26.650Z,51.33
2018-10-07T18:12:55.665Z,50.94
2018-10-07T18:15:25.551Z,51.38
2018-10-07T18:17:54.519Z,51.63
2018-10-07T18:20:23.536Z,52.22
2018-10-07T18:22:52.648Z,51.99
2018-10-07T18:25:21.751Z,52.16
2018-10-07T18:27:50.694Z,52.93
2018-10-07T18:30:19.646Z,52.88
2018-10-07T18:32:48.671Z,52.88
2018-10-07T18:35:17.664Z,53.14
2018-10-07T18:37:46.618Z,53.42
2018-10-07T18:40:15.656Z,53.42
2018-10-07T18:42:44.679Z,53.58
2018-10-07T18:45:13.631Z,54.00
2018-10-07T18:47:42.595Z,53.93
2018-10-07T18:50:11.558Z,53.77
2018-10-07T18:52:40.522Z,53.64
2018-10-07T18:55:09.461Z,53.55
2018-10-07T18:57:38.430Z,53.78
2018-10-07T19:00:09.524Z,53.81
2018-10-07T19:02:38.650Z,53.93
2018-10-07T19:05:07.539Z,53.53
2018-10-07T19:07:36.585Z,53.90
2018-10-07T19:10:06.147Z,53.85
2018-10-07T19:12:36.248Z,53.74
2018-10-07T19:15:05.314Z,53.61
2018-10-07T19:17:34.391Z,54.09
2018-10-07T19:20:03.380Z,54.21
2018-10-07T19:22:32.331Z,53.75
2018-10-07T19:25:01.294Z,54.10
2018-10-07T19:27:30.243Z,54.09
2018-10-07T19:29:59.206Z,53.78
2018-10-07T19:32:28.280Z,54.02
2018-10-07T19:34:57.235Z,53.82
2018-10-07T19:37:26.309Z,54.18
2018-10-07T19:39:55.239Z,54.17
2018-10-07T19:42:24.200Z,54.25
2018-10-07T19:44:53.469Z,54.21
2018-10-07T19:47:22.406Z,54.19
2018-10-07T19:49:51.368Z,54.29
2018-10-07T19:52:20.363Z,54.39
2018-10-07T19:54:49.317Z,54.49
2018-10-07T19:57:18.282Z,54.77
2018-10-07T19:59:47.275Z,54.57
2018-10-07T20:02:16.230Z,54.87
2018-10-07T20:04:45.230Z,55.50
2018-10-07T20:07:14.922Z,55.49
2018-10-07T20:09:43.874Z,55.67
2018-10-07T20:12:12.815Z,55.54
2018-10-07T20:14:41.774Z,56.10
2018-10-07T20:17:10.826Z,55.52
2018-10-07T20:19:39.763Z,56.38
2018-10-07T20:22:14.407Z,56.50
2018-10-07T20:24:43.370Z,56.50
2018-10-07T20:27:12.350Z,56.59
2018-10-07T20:29:41.725Z,56.51
2018-10-07T20:32:10.914Z,56.53
2018-10-07T20:34:39.872Z,56.93
2018-10-07T20:37:08.910Z,56.88
2018-10-07T20:39:37.882Z,56.88
2018-10-07T20:42:06.819Z,56.91
2018-10-07T20:44:35.776Z,57.18
2018-10-07T20:47:04.690Z,56.97
2018-10-07T20:49:33.706Z,56.82
2018-10-07T20:52:02.650Z,56.45
2018-10-07T20:54:31.659Z,57.01
2018-10-07T20:57:00.751Z,57.49
2018-10-07T20:59:29.718Z,57.53
2018-10-07T21:01:58.679Z,57.75
2018-10-07T21:04:27.615Z,57.66
2018-10-07T21:06:56.518Z,57.58
2018-10-07T21:09:25.455Z,57.72
2018-10-07T21:11:54.450Z,57.93
2018-10-07T21:14:23.402Z,57.84
2018-10-07T21:16:52.339Z,58.01
2018-10-07T21:19:21.287Z,58.03
2018-10-07T21:21:50.305Z,57.38
2018-10-07T21:24:19.312Z,57.79
2018-10-07T21:26:48.230Z,57.67
2018-10-07T21:29:17.179Z,57.46
2018-10-07T21:31:46.151Z,57.52
2018-10-07T21:34:15.086Z,57.78
2018-10-07T21:36:44.014Z,57.51
2018-10-07T21:39:12.946Z,58.01
2018-10-07T21:41:41.953Z,57.91
2018-10-07T21:44:10.868Z,57.69
2018-10-07T21:46:39.959Z,57.54
2018-10-07T21:49:09.146Z,57.50
2018-10-07T21:51:38.073Z,57.75
2018-10-07T21:54:07.194Z,57.46
2018-10-07T21:56:36.969Z,58.23
2018-10-07T21:59:06.279Z,58.43
2018-10-07T22:01:35.198Z,58.69
2018-10-07T22:04:04.137Z,58.27
2018-10-07T22:06:33.063Z,58.26
2018-10-07T22:09:01.987Z,58.23
2018-10-07T22:11:30.942Z,58.31
2018-10-07T22:13:59.901Z,58.05
2018-10-07T22:16:28.870Z,58.50
2018-10-07T22:18:57.922Z,58.67
2018-10-07T22:21:26.894Z,58.92
2018-10-07T22:23:55.838Z,58.51
2018-10-07T22:26:24.803Z,58.39
2018-10-07T22:28:53.758Z,58.68
2018-10-07T22:31:22.837Z,58.07
2018-10-07T22:33:52.419Z,57.22
2018-10-07T22:36:21.389Z,57.12
2018-10-07T22:38:50.355Z,57.02
2018-10-07T22:41:19.323Z,56.62
2018-10-07T22:43:48.311Z,55.97
2018-10-07T22:46:17.245Z,56.04
2018-10-07T22:48:46.153Z,56.48
2018-10-07T22:51:15.185Z,56.38
2018-10-07T22:53:44.099Z,56.56
2018-10-07T22:56:13.005Z,56.35
2018-10-07T22:58:42.034Z,56.83
2018-10-07T23:01:10.990Z,56.85
2018-10-07T23:03:39.893Z,56.71
2018-10-07T23:06:08.838Z,57.15
2018-10-07T23:08:37.750Z,57.36
2018-10-07T23:11:06.929Z,57.82
2018-10-07T23:13:35.818Z,57.72
2018-10-07T23:16:04.750Z,57.80
2018-10-07T23:18:33.658Z,58.54
2018-10-07T23:21:02.675Z,58.90
2018-10-07T23:23:31.624Z,58.63
2018-10-07T23:26:00.569Z,58.83
2018-10-07T23:28:29.550Z,58.51
2018-10-07T23:30:58.474Z,58.83
2018-10-07T23:33:27.417Z,59.02
2018-10-07T23:35:56.354Z,59.08
2018-10-07T23:38:25.367Z,58.30
2018-10-07T23:40:55.489Z,58.18
2018-10-07T23:43:30.746Z,58.02
2018-10-07T23:45:59.661Z,58.59
2018-10-07T23:48:28.586Z,58.67
2018-10-07T23:50:57.505Z,58.96
2018-10-07T23:53:26.463Z,58.99
2018-10-07T23:55:55.424Z,59.12
2018-10-07T23:58:24.386Z,59.01
